Time;durP1;ratioP1;P1;durP2;ratioP2;P2;SDS_P1;SDS_P2;PMS_P1;PMS_P2;Temp;Humidity;BMP_temperature;BMP_pressure;BME280_temperature;BME280_humidity;BME280_pressure;Samples;Min_cycle;Max_cycle;Signal;HPM_P1;HPM_P2
2020/12/16 00:01:01;;;;;;;100.40;38.60;;;7.10;99.90;;;;;;5027018;28;20049;-91
2020/12/16 00:03:47;;;;;;;100.97;39.10;;;7.10;99.90;;;;;;5004383;28;20041;-86
2020/12/16 00:06:34;;;;;;;110.38;40.92;;;7.00;99.90;;;;;;5003970;28;20140;-85
2020/12/16 00:09:20;;;;;;;101.13;39.08;;;6.90;99.90;;;;;;5005396;28;20052;-86
2020/12/16 00:11:45;;;;;;;117.82;42.33;;;6.90;99.90;;;;;;5013330;28;20042;-86
2020/12/16 00:14:11;;;;;;;95.10;38.83;;;6.90;99.90;;;;;;5023239;28;20044;-85
2020/12/16 00:16:57;;;;;;;105.15;38.92;;;6.80;99.90;;;;;;4991216;28;20052;-86
2020/12/16 00:19:23;;;;;;;115.03;40.35;;;6.70;99.90;;;;;;4998923;28;20033;-87
2020/12/16 00:21:49;;;;;;;126.82;42.13;;;6.60;99.90;;;;;;5015921;28;20481;-86
2020/12/16 00:24:15;;;;;;;122.13;39.80;;;6.50;99.90;;;;;;5032525;28;20041;-87
2020/12/16 00:26:44;;;;;;;137.13;42.42;;;6.40;99.90;;;;;;5031691;28;20049;-86
2020/12/16 00:29:13;;;;;;;146.52;43.08;;;6.30;99.90;;;;;;5022632;28;20045;-86
2020/12/16 00:31:39;;;;;;;130.80;40.35;;;6.20;99.90;;;;;;5025515;28;20042;-86
2020/12/16 00:34:24;;;;;;;169.82;45.70;;;6.10;99.90;;;;;;5006811;28;20049;-85
2020/12/16 00:36:50;;;;;;;137.50;41.70;;;6.10;99.90;;;;;;5015549;28;20050;-86
2020/12/16 00:39:16;;;;;;;173.68;45.10;;;6.00;99.90;;;;;;4995299;28;20088;-86
2020/12/16 00:41:42;;;;;;;136.63;41.75;;;5.90;99.90;;;;;;5005702;28;20049;-88
2020/12/16 00:44:27;;;;;;;147.23;42.25;;;5.90;99.90;;;;;;5002028;28;20061;-86
2020/12/16 00:46:53;;;;;;;195.30;48.25;;;5.90;99.90;;;;;;5017890;28;20042;-86
2020/12/16 00:49:41;;;;;;;142.65;42.25;;;5.90;99.90;;;;;;4973714;28;20054;-86
2020/12/16 00:52:07;;;;;;;130.07;41.25;;;5.80;99.90;;;;;;4994464;28;20049;-90
2020/12/16 00:54:32;;;;;;;114.55;38.10;;;5.80;99.90;;;;;;5010801;28;20042;-85
2020/12/16 00:56:58;;;;;;;182.15;45.80;;;5.80;99.90;;;;;;4994823;28;20398;-87
2020/12/16 00:59:24;;;;;;;183.25;47.28;;;5.70;99.90;;;;;;5010631;28;20041;-86
2020/12/16 01:01:50;;;;;;;145.70;43.42;;;5.70;99.90;;;;;;5010348;28;20049;-85
2020/12/16 01:04:15;;;;;;;156.85;45.72;;;5.60;99.90;;;;;;5010892;28;20038;-85
2020/12/16 01:06:41;;;;;;;110.65;38.75;;;5.60;99.90;;;;;;5012450;28;20038;-85
2020/12/16 01:09:07;;;;;;;149.82;44.78;;;5.50;99.90;;;;;;4962227;28;20141;-89
2020/12/16 01:11:37;;;;;;;162.70;47.17;;;5.50;99.90;;;;;;4994029;28;20053;-86
2020/12/16 01:14:06;;;;;;;195.03;48.20;;;5.50;99.90;;;;;;5002806;28;20053;-85
2020/12/16 01:16:36;;;;;;;229.70;51.38;;;5.50;99.90;;;;;;5011373;28;20045;-85
2020/12/16 01:19:22;;;;;;;159.73;41.90;;;5.40;99.90;;;;;;4983275;28;20050;-85
2020/12/16 01:21:48;;;;;;;172.10;44.90;;;5.30;99.90;;;;;;5011876;28;20046;-85
2020/12/16 01:24:34;;;;;;;143.35;42.85;;;5.30;99.90;;;;;;5000874;28;20057;-86
2020/12/16 01:27:00;;;;;;;165.48;43.65;;;5.20;99.90;;;;;;5010684;28;20137;-85
2020/12/16 01:29:25;;;;;;;226.05;50.83;;;5.20;99.90;;;;;;5021495;28;20816;-86
2020/12/16 01:32:14;;;;;;;139.35;41.17;;;5.20;99.90;;;;;;5016499;28;20049;-86
2020/12/16 01:34:40;;;;;;;318.80;58.85;;;5.20;99.90;;;;;;5011993;28;20121;-86
2020/12/16 01:37:07;;;;;;;251.40;50.35;;;5.20;99.90;;;;;;5010550;28;20133;-86
2020/12/16 01:39:53;;;;;;;278.40;51.65;;;5.10;99.90;;;;;;5010583;28;20053;-85
2020/12/16 01:42:39;;;;;;;247.40;50.83;;;5.10;99.90;;;;;;4978132;28;20060;-85
2020/12/16 01:45:18;;;;;;;192.90;46.70;;;5.00;99.90;;;;;;5022543;28;20472;-85
2020/12/16 01:48:04;;;;;;;144.35;40.13;;;5.00;99.90;;;;;;5010741;28;20490;-85
2020/12/16 01:50:31;;;;;;;201.38;48.08;;;5.00;99.90;;;;;;4992928;28;20044;-87
2020/12/16 01:52:59;;;;;;;194.18;49.00;;;4.90;99.90;;;;;;5019055;28;20470;-85
2020/12/16 01:55:27;;;;;;;180.20;46.80;;;5.00;99.90;;;;;;5010498;28;20041;-85
2020/12/16 01:58:16;;;;;;;172.02;47.90;;;5.00;99.90;;;;;;5009870;28;20050;-87
2020/12/16 02:00:43;;;;;;;174.80;47.63;;;5.00;99.90;;;;;;5010100;28;20045;-85
2020/12/16 02:03:15;;;;;;;314.30;60.28;;;5.10;99.90;;;;;;5011091;28;20069;-89
2020/12/16 02:06:06;;;;;;;370.33;64.47;;;5.20;99.90;;;;;;5010576;28;20049;-85
2020/12/16 02:08:38;;;;;;;455.50;70.55;;;5.30;99.90;;;;;;5013192;28;20104;-86
2020/12/16 02:11:03;;;;;;;587.40;64.47;;;5.30;99.90;;;;;;5023283;28;20081;-85
2020/12/16 02:13:29;;;;;;;773.67;62.40;;;5.50;99.90;;;;;;5002565;28;20042;-85
2020/12/16 02:16:15;;;;;;;639.05;55.60;;;5.60;99.90;;;;;;5009232;28;20417;-85
2020/12/16 02:18:46;;;;;;;599.15;59.00;;;5.60;99.90;;;;;;5009971;28;20041;-85
2020/12/16 02:21:13;;;;;;;718.22;67.90;;;5.70;99.90;;;;;;5009884;28;20042;-89
2020/12/16 02:23:44;;;;;;;739.42;64.80;;;5.80;99.90;;;;;;5014897;28;20070;-85
2020/12/16 02:26:10;;;;;;;642.67;57.92;;;5.80;99.90;;;;;;5008027;28;20089;-87
2020/12/16 02:28:56;;;;;;;693.53;61.72;;;5.80;99.90;;;;;;5009577;28;20406;-84
2020/12/16 02:31:22;;;;;;;390.67;49.83;;;5.90;99.90;;;;;;5024932;28;20056;-87
2020/12/16 02:34:08;;;;;;;569.30;56.60;;;6.00;99.90;;;;;;5010393;28;20485;-85
2020/12/16 02:36:34;;;;;;;635.55;60.63;;;6.00;99.90;;;;;;5009155;28;20122;-87
2020/12/16 02:39:19;;;;;;;556.53;57.45;;;6.00;99.90;;;;;;4995934;28;20051;-85
2020/12/16 02:42:06;;;;;;;379.92;51.78;;;6.10;99.90;;;;;;4995829;28;20058;-85
2020/12/16 02:44:32;;;;;;;556.42;58.05;;;6.10;99.90;;;;;;5009577;28;20046;-85
2020/12/16 02:47:00;;;;;;;422.30;52.83;;;6.10;99.90;;;;;;5025578;28;20049;-85
2020/12/16 02:49:26;;;;;;;791.30;76.45;;;6.10;99.90;;;;;;5025073;28;20080;-86
2020/12/16 02:51:54;;;;;;;717.33;64.90;;;6.20;99.90;;;;;;5010061;28;20038;-85
2020/12/16 02:54:20;;;;;;;711.22;68.47;;;6.20;99.90;;;;;;5024085;28;20042;-85
2020/12/16 02:56:48;;;;;;;482.65;55.65;;;6.20;99.90;;;;;;5024983;28;20095;-87
2020/12/16 02:59:14;;;;;;;446.10;55.10;;;6.30;99.90;;;;;;5025178;28;20042;-89
2020/12/16 03:02:00;;;;;;;467.83;55.47;;;6.30;99.90;;;;;;5002321;28;20073;-86
2020/12/16 03:04:26;;;;;;;514.33;56.30;;;6.30;99.90;;;;;;5024576;28;20045;-87
2020/12/16 03:06:54;;;;;;;662.55;63.13;;;6.30;99.90;;;;;;5008885;28;20050;-86
2020/12/16 03:09:23;;;;;;;522.00;54.08;;;6.30;99.90;;;;;;4991702;28;20045;-87
2020/12/16 03:11:53;;;;;;;437.27;48.95;;;6.30;99.90;;;;;;5001098;28;20386;-86
2020/12/16 03:14:39;;;;;;;473.77;55.05;;;6.30;99.90;;;;;;5008501;28;20465;-86
2020/12/16 03:17:05;;;;;;;316.70;45.35;;;6.30;99.90;;;;;;5024962;28;20054;-85
2020/12/16 03:19:51;;;;;;;518.60;55.80;;;6.30;99.90;;;;;;5008691;28;20050;-85
2020/12/16 03:22:37;;;;;;;406.98;50.53;;;6.30;99.90;;;;;;5022106;28;20081;-85
2020/12/16 03:25:03;;;;;;;535.30;51.80;;;6.40;99.90;;;;;;5025028;28;20482;-87
2020/12/16 03:27:28;;;;;;;489.70;54.42;;;6.40;99.90;;;;;;5024703;28;20104;-85
2020/12/16 03:30:14;;;;;;;508.70;48.38;;;6.40;99.90;;;;;;5014084;28;20054;-86
2020/12/16 03:32:40;;;;;;;712.80;61.75;;;6.40;99.90;;;;;;5007741;28;20041;-87
2020/12/16 03:35:06;;;;;;;410.20;46.28;;;6.30;99.90;;;;;;5025310;28;20046;-87
2020/12/16 03:37:34;;;;;;;270.85;41.30;;;6.30;99.90;;;;;;5024701;28;20053;-86
2020/12/16 03:40:23;;;;;;;264.40;41.78;;;6.40;99.90;;;;;;5008014;28;20069;-86
2020/12/16 03:42:49;;;;;;;425.23;46.97;;;6.30;99.90;;;;;;5024970;28;20069;-86
2020/12/16 03:45:14;;;;;;;490.23;49.75;;;6.30;99.90;;;;;;5008839;28;20112;-86
2020/12/16 03:48:00;;;;;;;302.58;42.97;;;6.30;99.90;;;;;;4995166;28;20494;-86
2020/12/16 03:50:26;;;;;;;395.17;46.33;;;6.30;99.90;;;;;;5023780;28;20046;-86
2020/12/16 03:52:51;;;;;;;316.15;44.70;;;6.30;99.90;;;;;;5024448;28;20541;-86
2020/12/16 03:55:17;;;;;;;338.05;44.25;;;6.30;99.90;;;;;;5024392;28;20403;-86
2020/12/16 03:58:03;;;;;;;224.00;39.13;;;6.30;99.90;;;;;;5008454;28;20057;-86
2020/12/16 04:00:29;;;;;;;385.00;43.63;;;6.40;99.90;;;;;;5023755;28;20120;-86
2020/12/16 04:02:54;;;;;;;356.55;44.58;;;6.40;99.90;;;;;;5024676;28;20046;-87
2020/12/16 04:05:40;;;;;;;544.72;54.42;;;6.40;99.90;;;;;;4994951;28;20088;-86
2020/12/16 04:08:06;;;;;;;434.85;48.75;;;6.40;99.90;;;;;;4992658;28;20128;-86
2020/12/16 04:10:32;;;;;;;426.45;49.33;;;6.50;99.90;;;;;;5010443;28;20496;-86
2020/12/16 04:12:57;;;;;;;456.60;52.97;;;6.40;99.90;;;;;;5027325;28;20046;-85
2020/12/16 04:15:24;;;;;;;404.42;50.70;;;6.40;99.90;;;;;;5026974;28;20124;-89
2020/12/16 04:17:49;;;;;;;368.80;49.30;;;6.40;99.90;;;;;;5027336;28;20038;-84
2020/12/16 04:20:15;;;;;;;479.48;50.60;;;6.40;99.90;;;;;;5027171;28;20409;-85
2020/12/16 04:23:03;;;;;;;586.65;60.03;;;6.50;99.90;;;;;;5011255;28;20053;-87
2020/12/16 04:25:29;;;;;;;359.35;48.88;;;6.50;99.90;;;;;;5011989;28;20470;-86
2020/12/16 04:27:55;;;;;;;346.13;50.95;;;6.50;99.90;;;;;;5029798;28;20046;-86
2020/12/16 04:30:20;;;;;;;356.48;48.72;;;6.50;99.90;;;;;;5034050;28;20041;-85
2020/12/16 04:32:51;;;;;;;285.95;47.13;;;6.50;99.90;;;;;;5012160;28;20509;-86
2020/12/16 04:35:20;;;;;;;390.70;53.40;;;6.50;99.90;;;;;;5030988;28;20112;-86
2020/12/16 04:37:49;;;;;;;517.90;57.40;;;6.60;99.90;;;;;;5030331;28;20803;-86
2020/12/16 04:40:15;;;;;;;485.33;52.97;;;6.60;99.90;;;;;;5029550;28;20053;-86
2020/12/16 04:43:07;;;;;;;595.42;63.45;;;6.60;99.90;;;;;;5017927;28;20059;-86
2020/12/16 04:45:37;;;;;;;495.75;58.92;;;6.60;99.90;;;;;;5031713;28;20056;-84
2020/12/16 04:48:22;;;;;;;361.17;50.97;;;6.60;99.90;;;;;;5017749;28;20049;-88
2020/12/16 04:50:49;;;;;;;479.25;58.67;;;6.60;99.90;;;;;;5031156;28;20487;-85
2020/12/16 04:53:36;;;;;;;558.90;61.72;;;6.70;99.90;;;;;;5002896;28;20061;-88
2020/12/16 04:56:23;;;;;;;484.17;55.83;;;6.70;99.90;;;;;;5017417;28;20050;-87
2020/12/16 04:58:49;;;;;;;500.52;54.20;;;6.70;99.90;;;;;;5029825;28;20496;-85
2020/12/16 05:01:15;;;;;;;474.92;53.63;;;6.70;99.90;;;;;;4998090;28;20045;-86
2020/12/16 05:03:41;;;;;;;570.97;60.97;;;6.70;99.90;;;;;;4996896;28;20552;-86
2020/12/16 05:06:33;;;;;;;608.88;61.17;;;6.70;99.90;;;;;;5016492;28;20067;-90
2020/12/16 05:09:13;;;;;;;531.53;54.38;;;6.70;99.90;;;;;;5029969;28;20396;-87
2020/12/16 05:11:59;;;;;;;636.17;63.15;;;6.70;99.90;;;;;;5024663;28;20084;-85
2020/12/16 05:14:25;;;;;;;762.47;66.82;;;6.70;99.90;;;;;;5013293;28;20061;-89
2020/12/16 05:16:57;;;;;;;546.92;54.90;;;6.70;99.90;;;;;;5002793;28;20049;-86
2020/12/16 05:19:35;;;;;;;459.05;50.00;;;6.70;99.90;;;;;;5028387;28;20045;-86
2020/12/16 05:22:12;;;;;;;635.00;60.80;;;6.70;99.90;;;;;;5030092;28;20037;-86
2020/12/16 05:24:38;;;;;;;603.28;56.33;;;6.70;99.90;;;;;;5028811;28;20049;-87
2020/12/16 05:27:07;;;;;;;428.25;52.17;;;6.70;99.90;;;;;;5014084;28;20129;-86
2020/12/16 05:29:33;;;;;;;651.90;59.88;;;6.70;99.90;;;;;;5025498;28;20426;-87
2020/12/16 05:32:20;;;;;;;560.53;55.97;;;6.70;99.90;;;;;;4970904;28;20058;-86
2020/12/16 05:34:47;;;;;;;638.65;60.95;;;6.70;99.90;;;;;;4990440;28;20039;-85
2020/12/16 05:37:36;;;;;;;402.92;50.22;;;6.70;99.90;;;;;;4997413;28;20053;-85
2020/12/16 05:40:21;;;;;;;542.90;56.97;;;6.80;99.90;;;;;;4972409;28;20073;-85
2020/12/16 05:42:49;;;;;;;572.67;57.83;;;6.80;99.90;;;;;;4993552;28;20100;-88
2020/12/16 05:45:18;;;;;;;631.88;61.88;;;6.80;99.90;;;;;;4966496;28;20052;-87
2020/12/16 05:48:10;;;;;;;518.42;57.47;;;6.80;99.90;;;;;;5010518;28;20042;-86
2020/12/16 05:50:40;;;;;;;430.52;50.58;;;6.80;99.90;;;;;;4979556;28;20077;-86
2020/12/16 05:53:15;;;;;;;470.60;52.65;;;6.80;99.90;;;;;;5006598;28;20053;-86
2020/12/16 05:55:41;;;;;;;477.20;52.35;;;6.80;99.90;;;;;;4993293;28;20042;-85
2020/12/16 05:58:29;;;;;;;456.17;53.97;;;6.80;99.90;;;;;;4993442;28;20482;-86
2020/12/16 06:01:02;;;;;;;364.95;51.30;;;6.80;99.90;;;;;;4996590;28;20064;-85
2020/12/16 06:03:39;;;;;;;419.75;57.70;;;6.80;99.90;;;;;;5005802;28;20049;-85
2020/12/16 06:06:06;;;;;;;386.92;54.08;;;6.80;99.90;;;;;;5011298;28;20609;-86
2020/12/16 06:08:52;;;;;;;326.90;53.38;;;6.90;99.90;;;;;;4982278;28;20497;-85
2020/12/16 06:11:18;;;;;;;365.25;54.25;;;6.90;99.90;;;;;;5009419;28;20041;-88
2020/12/16 06:14:06;;;;;;;306.80;51.28;;;6.90;99.90;;;;;;4995854;28;20136;-85
2020/12/16 06:16:47;;;;;;;254.02;49.60;;;6.90;99.90;;;;;;5006967;28;20046;-89
2020/12/16 06:19:25;;;;;;;294.00;51.17;;;6.90;99.90;;;;;;5006972;28;20120;-85
2020/12/16 06:21:58;;;;;;;292.23;50.45;;;6.90;99.90;;;;;;5010232;28;20196;-87
2020/12/16 06:24:44;;;;;;;275.63;48.85;;;6.90;99.90;;;;;;4982371;28;20422;-86
2020/12/16 06:27:12;;;;;;;255.50;49.55;;;7.00;99.90;;;;;;5010931;28;20042;-86
2020/12/16 06:29:44;;;;;;;225.75;47.00;;;7.00;99.90;;;;;;5003712;28;20418;-87
2020/12/16 06:32:19;;;;;;;257.98;49.05;;;7.00;99.90;;;;;;4985992;28;20046;-87
2020/12/16 06:34:45;;;;;;;195.77;44.33;;;7.00;99.90;;;;;;5009812;28;20042;-85
2020/12/16 06:37:15;;;;;;;180.82;42.13;;;7.00;99.90;;;;;;5010344;28;20604;-85
2020/12/16 06:39:41;;;;;;;195.85;45.15;;;7.00;99.90;;;;;;5003984;28;20046;-85
2020/12/16 06:42:07;;;;;;;184.32;42.15;;;7.00;99.90;;;;;;4980590;28;20379;-85
2020/12/16 06:44:33;;;;;;;186.65;42.55;;;7.10;99.90;;;;;;5009072;28;20477;-88
2020/12/16 06:47:25;;;;;;;117.35;34.05;;;7.10;99.90;;;;;;4991648;28;20081;-86
2020/12/16 06:49:50;;;;;;;138.50;39.85;;;7.00;99.90;;;;;;4991932;28;20049;-85
2020/12/16 06:52:27;;;;;;;139.35;40.47;;;7.00;99.90;;;;;;5010524;28;20038;-86
2020/12/16 06:55:14;;;;;;;145.00;39.58;;;7.10;99.90;;;;;;5007079;28;20049;-86
2020/12/16 06:57:48;;;;;;;143.93;41.38;;;7.10;99.90;;;;;;5007502;28;20108;-86
2020/12/16 07:00:22;;;;;;;159.50;42.55;;;7.10;99.90;;;;;;5010673;28;20041;-86
2020/12/16 07:02:49;;;;;;;166.85;43.25;;;7.10;99.90;;;;;;5010218;28;20046;-86
2020/12/16 07:05:37;;;;;;;143.75;41.85;;;7.10;99.90;;;;;;5009792;28;20038;-86
2020/12/16 07:08:29;;;;;;;124.95;39.25;;;7.20;99.90;;;;;;5008086;28;20061;-86
2020/12/16 07:10:55;;;;;;;132.23;40.08;;;7.20;99.90;;;;;;4992287;28;20057;-86
2020/12/16 07:13:41;;;;;;;148.65;41.03;;;7.10;99.90;;;;;;4995155;28;20168;-85
2020/12/16 07:16:13;;;;;;;126.82;39.33;;;7.20;99.90;;;;;;5009285;28;20116;-85
2020/12/16 07:18:39;;;;;;;140.75;38.60;;;7.20;99.90;;;;;;4999973;28;20038;-86
2020/12/16 07:21:08;;;;;;;139.57;39.28;;;7.20;99.90;;;;;;4991950;28;20486;-85
2020/12/16 07:23:57;;;;;;;129.02;38.15;;;7.20;99.90;;;;;;4994803;28;20121;-86
2020/12/16 07:26:53;;;;;;;135.13;37.63;;;7.20;99.90;;;;;;5005849;28;20041;-86
2020/12/16 07:29:41;;;;;;;123.05;37.38;;;7.20;99.90;;;;;;4997538;28;20062;-85
2020/12/16 07:32:12;;;;;;;119.00;34.40;;;7.20;99.90;;;;;;5011590;28;20108;-87
2020/12/16 07:34:48;;;;;;;123.78;36.92;;;7.20;99.90;;;;;;5029952;28;20128;-89
2020/12/16 07:37:16;;;;;;;118.05;35.78;;;7.30;99.90;;;;;;5029050;28;20053;-87
2020/12/16 07:39:59;;;;;;;132.38;37.53;;;7.30;99.90;;;;;;5028255;28;20481;-86
2020/12/16 07:42:32;;;;;;;109.22;34.10;;;7.30;99.90;;;;;;5030694;28;20052;-84
2020/12/16 07:45:00;;;;;;;114.10;35.35;;;7.30;99.90;;;;;;5031817;28;20033;-86
2020/12/16 07:47:46;;;;;;;115.93;36.30;;;7.40;99.90;;;;;;5018543;28;20509;-87
2020/12/16 07:50:13;;;;;;;111.32;33.72;;;7.30;99.90;;;;;;5032262;28;20037;-86
2020/12/16 07:52:38;;;;;;;118.47;35.78;;;7.30;99.90;;;;;;5032020;28;20045;-90
2020/12/16 07:55:04;;;;;;;117.97;36.40;;;7.20;99.90;;;;;;5015463;28;20040;-85
2020/12/16 07:57:50;;;;;;;124.43;36.50;;;7.10;99.90;;;;;;5025464;28;20065;-87
2020/12/16 08:00:22;;;;;;;113.60;35.05;;;7.00;99.90;;;;;;5028787;28;20038;-85
2020/12/16 08:02:52;;;;;;;135.05;36.78;;;7.00;99.90;;;;;;5029528;28;20088;-88
2020/12/16 08:05:18;;;;;;;125.35;38.05;;;6.90;99.90;;;;;;5030729;28;20033;-83
2020/12/16 08:07:44;;;;;;;123.75;37.30;;;6.80;99.90;;;;;;5014576;28;20052;-84
2020/12/16 08:10:10;;;;;;;126.93;36.70;;;6.70;99.90;;;;;;5024419;28;20041;-84
2020/12/16 08:12:42;;;;;;;140.23;36.50;;;6.70;99.90;;;;;;5031099;28;20095;-86
2020/12/16 08:15:18;;;;;;;153.75;40.00;;;6.70;99.90;;;;;;5015744;28;20429;-86
2020/12/16 08:17:46;;;;;;;164.00;39.05;;;6.50;99.90;;;;;;5012005;28;20045;-85
2020/12/16 08:20:19;;;;;;;165.10;42.05;;;6.50;99.90;;;;;;5031592;28;20038;-84
2020/12/16 08:22:57;;;;;;;160.63;39.47;;;6.50;99.90;;;;;;5031407;28;20737;-83
2020/12/16 08:25:23;;;;;;;172.20;43.30;;;6.40;99.90;;;;;;5016322;28;20041;-85
2020/12/16 08:27:59;;;;;;;193.25;44.13;;;6.40;99.90;;;;;;5029247;28;20056;-82
2020/12/16 08:30:27;;;;;;;174.07;42.65;;;6.40;99.90;;;;;;5011389;28;21614;-84
2020/12/16 08:33:03;;;;;;;190.05;41.55;;;6.30;99.90;;;;;;5010644;28;20070;-82
2020/12/16 08:35:57;;;;;;;163.88;40.70;;;6.30;99.90;;;;;;5011632;28;20104;-81
2020/12/16 08:38:40;;;;;;;175.18;42.00;;;6.30;99.90;;;;;;5003992;28;20512;-82
2020/12/16 08:41:08;;;;;;;188.20;44.28;;;6.20;99.90;;;;;;5010784;28;20046;-82
2020/12/16 08:43:36;;;;;;;186.30;44.90;;;6.30;99.90;;;;;;5014236;28;20060;-83
2020/12/16 08:46:10;;;;;;;189.18;44.53;;;6.10;99.90;;;;;;5012697;28;20100;-83
2020/12/16 08:48:44;;;;;;;212.40;47.13;;;6.10;99.90;;;;;;4981227;28;20440;-83
2020/12/16 08:51:13;;;;;;;213.88;48.35;;;6.10;99.90;;;;;;5007942;28;20537;-84
2020/12/16 08:53:46;;;;;;;222.73;48.15;;;6.10;99.90;;;;;;5012318;28;20470;-82
2020/12/16 08:56:27;;;;;;;300.15;52.50;;;6.20;99.90;;;;;;5009816;28;20049;-83
2020/12/16 08:59:18;;;;;;;674.10;58.58;;;6.20;99.90;;;;;;5003092;28;20054;-82
2020/12/16 09:01:47;;;;;;;771.85;54.72;;;6.30;99.90;;;;;;4993488;28;20049;-87
2020/12/16 09:04:27;;;;;;;878.92;62.92;;;6.30;99.90;;;;;;5021970;28;20108;-83
2020/12/16 09:07:06;;;;;;;766.58;57.10;;;6.30;99.90;;;;;;5018942;28;20647;-84
2020/12/16 09:09:34;;;;;;;750.13;52.08;;;6.30;99.90;;;;;;4996451;28;20052;-84
2020/12/16 09:12:01;;;;;;;884.50;64.30;;;6.30;99.90;;;;;;4998330;28;20048;-82
2020/12/16 09:14:26;;;;;;;857.95;66.18;;;6.30;99.90;;;;;;5012897;28;20045;-83
2020/12/16 09:16:52;;;;;;;845.95;66.93;;;6.30;99.90;;;;;;4985210;28;20104;-86
2020/12/16 09:19:28;;;;;;;973.13;72.93;;;6.30;99.90;;;;;;5009487;28;20041;-84
2020/12/16 09:21:59;;;;;;;678.50;59.55;;;6.40;99.90;;;;;;5009885;28;20041;-84
2020/12/16 09:24:25;;;;;;;689.80;63.65;;;6.40;99.90;;;;;;5010659;28;20041;-83
2020/12/16 09:26:51;;;;;;;604.55;55.47;;;6.50;99.90;;;;;;5009873;28;20052;-81
2020/12/16 09:29:29;;;;;;;792.03;69.35;;;6.50;99.90;;;;;;5021168;28;20081;-83
2020/12/16 09:32:09;;;;;;;491.05;56.03;;;6.50;99.90;;;;;;5028586;28;20045;-84
2020/12/16 09:34:42;;;;;;;533.67;60.78;;;6.60;99.90;;;;;;5027759;28;20045;-83
2020/12/16 09:37:21;;;;;;;592.10;64.10;;;6.60;99.90;;;;;;5010651;28;20508;-83
2020/12/16 09:39:48;;;;;;;302.23;43.63;;;6.60;99.90;;;;;;5027691;28;20187;-86
2020/12/16 09:42:18;;;;;;;307.38;48.47;;;6.60;99.90;;;;;;5023695;28;20042;-84
2020/12/16 09:44:45;;;;;;;;;;;6.60;99.90;;;;;;5027975;28;20037;-83
2020/12/16 09:47:18;;;;;;;342.30;46.72;;;6.60;99.90;;;;;;5028498;28;19931;-84
2020/12/16 09:50:04;;;;;;;557.53;59.15;;;6.70;99.90;;;;;;5014710;28;20038;-83
2020/12/16 09:52:35;;;;;;;388.17;52.53;;;6.70;99.90;;;;;;5007777;28;20148;-83
2020/12/16 09:55:21;;;;;;;409.45;56.83;;;6.70;99.90;;;;;;5029402;28;20053;-83
2020/12/16 09:58:00;;;;;;;337.15;50.13;;;6.70;99.90;;;;;;5012926;28;20076;-87
2020/12/16 10:00:26;;;;;;;225.98;42.15;;;6.80;99.90;;;;;;5008756;28;20120;-84
2020/12/16 10:02:56;;;;;;;267.70;46.38;;;6.80;99.90;;;;;;5009412;28;20046;-83
2020/12/16 10:05:22;;;;;;;322.73;45.38;;;6.80;99.90;;;;;;5026460;28;20045;-83
2020/12/16 10:07:48;;;;;;;288.30;39.92;;;6.80;99.90;;;;;;5030190;28;20038;-86
2020/12/16 10:10:14;;;;;;;378.83;48.38;;;6.80;99.90;;;;;;5029432;28;20137;-85
2020/12/16 10:12:39;;;;;;;269.60;45.60;;;6.80;99.90;;;;;;5022614;28;20425;-84
2020/12/16 10:15:05;;;;;;;327.13;48.30;;;6.70;99.90;;;;;;4849467;28;21006;-83
2020/12/16 10:17:53;;;;;;;226.73;45.13;;;6.80;99.90;;;;;;4996115;28;20049;-86
2020/12/16 10:20:38;;;;;;;267.92;44.63;;;6.80;99.90;;;;;;5018425;28;20100;-85
2020/12/16 10:23:06;;;;;;;396.40;46.05;;;6.90;99.90;;;;;;5023893;28;20049;-83
2020/12/16 10:25:32;;;;;;;403.35;53.35;;;6.90;99.90;;;;;;4930115;28;20049;-85
2020/12/16 10:27:58;;;;;;;351.40;54.20;;;7.00;99.90;;;;;;5008636;28;20053;-87
2020/12/16 10:30:26;;;;;;;326.20;41.65;;;7.00;99.90;;;;;;5030021;28;20037;-87
2020/12/16 10:32:53;;;;;;;531.38;57.83;;;7.00;99.90;;;;;;5007794;28;20052;-89
2020/12/16 10:35:21;;;;;;;382.15;52.22;;;7.00;99.90;;;;;;5020461;28;20084;-87
2020/12/16 10:37:47;;;;;;;402.58;54.08;;;7.10;99.90;;;;;;5007130;28;20688;-87
2020/12/16 10:40:13;;;;;;;488.85;52.83;;;7.10;99.90;;;;;;4994495;28;20038;-87
2020/12/16 10:42:39;;;;;;;468.98;49.90;;;7.20;99.90;;;;;;5028509;28;20107;-87
2020/12/16 10:45:06;;;;;;;467.77;53.97;;;7.20;99.90;;;;;;5025510;28;20373;-86
2020/12/16 10:47:32;;;;;;;494.45;54.78;;;7.10;99.90;;;;;;5024854;28;20042;-87
2020/12/16 10:49:58;;;;;;;439.10;58.00;;;7.20;99.90;;;;;;5023505;28;20045;-87
2020/12/16 10:52:24;;;;;;;235.07;49.85;;;7.10;99.90;;;;;;5002282;28;20045;-86
2020/12/16 10:54:50;;;;;;;200.82;47.53;;;7.20;99.90;;;;;;5004565;28;20075;-86
2020/12/16 10:57:16;;;;;;;192.38;51.08;;;7.30;99.90;;;;;;5011295;28;20513;-86
2020/12/16 10:59:41;;;;;;;204.25;53.88;;;7.30;99.90;;;;;;5007081;28;20796;-86
2020/12/16 11:02:07;;;;;;;207.88;53.30;;;7.40;99.90;;;;;;5010414;28;20052;-86
2020/12/16 11:04:35;;;;;;;173.60;49.72;;;7.40;99.90;;;;;;5005944;28;20087;-86
2020/12/16 11:07:20;;;;;;;163.55;50.70;;;7.50;99.90;;;;;;4995289;28;20100;-86
2020/12/16 11:09:46;;;;;;;157.45;46.30;;;7.60;99.90;;;;;;5011290;28;20468;-87
2020/12/16 11:12:12;;;;;;;144.77;47.80;;;7.60;99.90;;;;;;4993952;28;20743;-86
2020/12/16 11:14:38;;;;;;;169.15;48.58;;;7.60;99.90;;;;;;5026518;28;20045;-87
2020/12/16 11:17:05;;;;;;;141.77;46.08;;;7.70;99.90;;;;;;5022377;28;20496;-85
2020/12/16 11:19:31;;;;;;;137.90;45.90;;;7.60;99.90;;;;;;5026973;28;20489;-86
2020/12/16 11:21:57;;;;;;;143.50;44.90;;;7.60;99.90;;;;;;5008781;28;20044;-86
2020/12/16 11:24:23;;;;;;;133.25;45.08;;;7.60;99.90;;;;;;5026984;28;20045;-89
2020/12/16 11:27:09;;;;;;;117.03;42.30;;;7.60;99.90;;;;;;5012401;28;20067;-87
2020/12/16 11:29:35;;;;;;;117.40;41.92;;;7.60;99.90;;;;;;5027261;28;20552;-84
2020/12/16 11:32:01;;;;;;;106.63;41.22;;;7.70;99.90;;;;;;5011697;28;20045;-84
2020/12/16 11:34:28;;;;;;;130.48;46.42;;;7.80;99.90;;;;;;5013104;28;20386;-85
2020/12/16 11:37:14;;;;;;;127.15;43.80;;;7.70;99.90;;;;;;5026326;28;20128;-87
2020/12/16 11:40:01;;;;;;;124.05;41.20;;;7.70;99.90;;;;;;5001306;28;20045;-84
2020/12/16 11:42:28;;;;;;;113.40;41.95;;;7.80;99.90;;;;;;5033057;28;20042;-85
2020/12/16 11:44:54;;;;;;;117.75;41.55;;;7.70;99.90;;;;;;5029354;28;20540;-85
2020/12/16 11:47:20;;;;;;;108.07;40.78;;;7.70;99.90;;;;;;5010650;28;20148;-86
2020/12/16 11:49:45;;;;;;;115.95;43.05;;;7.70;99.90;;;;;;5012730;28;20167;-86
2020/12/16 11:52:31;;;;;;;108.47;41.13;;;7.70;99.90;;;;;;5005983;28;20558;-85
2020/12/16 11:54:57;;;;;;;95.53;39.15;;;7.80;99.90;;;;;;5010028;28;20119;-86
2020/12/16 11:57:24;;;;;;;104.90;41.33;;;7.70;99.90;;;;;;5025370;28;20038;-85
2020/12/16 11:59:50;;;;;;;84.28;35.75;;;7.80;99.90;;;;;;5010518;28;20492;-85
2020/12/16 12:02:16;;;;;;;85.95;36.65;;;7.70;99.90;;;;;;5005814;28;20072;-85
2020/12/16 12:04:42;;;;;;;98.30;40.30;;;7.80;99.90;;;;;;5008712;28;20810;-85
2020/12/16 12:07:09;;;;;;;96.38;40.85;;;7.80;99.90;;;;;;4994966;28;20041;-85
2020/12/16 12:09:35;;;;;;;93.28;40.75;;;7.90;99.90;;;;;;5032298;28;20034;-85
2020/12/16 12:12:21;;;;;;;80.20;35.90;;;8.00;99.90;;;;;;5014018;28;20060;-85
2020/12/16 12:14:46;;;;;;;79.70;36.08;;;8.00;99.90;;;;;;5030412;28;20037;-85
2020/12/16 12:17:13;;;;;;;87.53;37.47;;;8.10;99.90;;;;;;5029665;28;20127;-86
2020/12/16 12:19:59;;;;;;;80.85;36.85;;;8.10;99.90;;;;;;5010675;28;20139;-87
2020/12/16 12:22:25;;;;;;;69.53;34.33;;;8.10;99.90;;;;;;5011503;28;20167;-86
2020/12/16 12:25:11;;;;;;;85.60;37.15;;;8.00;99.90;;;;;;5000237;28;20409;-84
2020/12/16 12:27:37;;;;;;;76.82;35.15;;;8.00;99.90;;;;;;5027790;28;20045;-85
2020/12/16 12:30:03;;;;;;;77.38;35.58;;;8.00;99.90;;;;;;5028406;28;20052;-87
2020/12/16 12:32:29;;;;;;;73.22;34.92;;;8.00;99.90;;;;;;5027934;28;20040;-87
2020/12/16 12:35:15;;;;;;;72.85;34.42;;;7.90;99.90;;;;;;4998585;28;20063;-87
2020/12/16 12:38:01;;;;;;;79.80;35.35;;;7.90;99.90;;;;;;5014574;28;20151;-86
2020/12/16 12:40:27;;;;;;;79.43;34.80;;;7.90;99.90;;;;;;5028263;28;20420;-85
2020/12/16 12:42:52;;;;;;;70.38;34.28;;;7.90;99.90;;;;;;5027173;28;20033;-85
2020/12/16 12:45:18;;;;;;;74.93;34.20;;;7.80;99.90;;;;;;5003117;28;20088;-86
2020/12/16 12:47:44;;;;;;;72.00;35.08;;;7.90;99.90;;;;;;5022604;28;20041;-86
2020/12/16 12:50:10;;;;;;;66.93;31.95;;;8.00;99.90;;;;;;4993640;28;20056;-87
2020/12/16 12:52:56;;;;;;;59.10;29.88;;;7.90;99.90;;;;;;5005597;28;20041;-85
2020/12/16 12:55:22;;;;;;;54.15;27.42;;;7.90;99.90;;;;;;5012481;28;20044;-86